Time;durP1;ratioP1;P1;durP2;ratioP2;P2;SDS_P1;SDS_P2;PMS_P1;PMS_P2;Temp;Humidity;BMP_temperature;BMP_pressure;BME280_temperature;BME280_humidity;BME280_pressure;Samples;Min_cycle;Max_cycle;Signal;HPM_P1;HPM_P2
2023/02/28 00:01:34;;;;;;;8.30;5.22;;;2.40;57.10;;;-2.94;83.79;95728.78;4948179;28;20118;-47
2023/02/28 00:04:01;;;;;;;9.65;4.93;;;2.40;57.10;;;-2.99;83.92;95725.09;4929437;29;20134;-48
2023/02/28 00:06:28;;;;;;;7.93;5.60;;;2.40;57.10;;;-3.04;84.13;95717.78;4924402;29;20027;-49
2023/02/28 00:09:00;;;;;;;8.73;5.38;;;2.40;57.10;;;-2.94;84.05;95723.56;4930933;28;20032;-52
2023/02/28 00:11:25;;;;;;;9.68;5.50;;;2.40;57.10;;;-2.90;83.85;95724.03;4924240;29;20113;-47
2023/02/28 00:13:51;;;;;;;9.95;5.25;;;2.40;57.10;;;-2.98;83.28;95722.28;4933078;29;20061;-48
2023/02/28 00:16:22;;;;;;;7.20;5.07;;;2.40;57.10;;;-2.93;83.93;95722.56;4932174;29;20027;-49
2023/02/28 00:18:51;;;;;;;7.60;5.20;;;2.40;57.10;;;-3.03;83.83;95725.44;4932336;29;20051;-49
2023/02/28 00:21:21;;;;;;;8.27;5.15;;;2.40;57.10;;;-2.95;83.97;95721.13;4933491;29;20038;-49
2023/02/28 00:23:49;;;;;;;9.73;5.32;;;2.40;57.10;;;-2.95;84.17;95723.72;4928342;29;20019;-52
2023/02/28 00:26:20;;;;;;;10.35;5.10;;;2.40;57.10;;;-2.90;84.13;95732.66;4933108;29;20114;-49
2023/02/28 00:28:48;;;;;;;8.60;5.28;;;2.40;57.20;;;-2.97;83.62;95726.53;4923840;29;20166;-46
2023/02/28 00:31:20;;;;;;;9.45;5.20;;;2.40;57.20;;;-3.00;84.00;95728.69;4932907;29;20125;-46
2023/02/28 00:33:46;;;;;;;8.27;5.17;;;2.40;57.20;;;-2.98;83.66;95729.31;4932006;29;20458;-53
2023/02/28 00:36:18;;;;;;;8.57;5.32;;;2.40;57.10;;;-3.01;84.50;95722.63;4930815;29;20062;-49
2023/02/28 00:38:44;;;;;;;9.27;5.50;;;2.40;57.20;;;-2.95;84.38;95726.34;4931148;29;20117;-47
2023/02/28 00:41:10;;;;;;;8.27;5.10;;;2.40;57.20;;;-2.99;84.84;95719.88;4928612;29;20497;-50
2023/02/28 00:43:48;;;;;;;9.52;5.80;;;2.40;57.20;;;-3.04;84.78;95734.25;4923195;29;20032;-51
2023/02/28 00:46:19;;;;;;;7.65;5.10;;;2.40;57.20;;;-3.00;84.42;95719.06;4925579;29;20031;-51
2023/02/28 00:48:45;;;;;;;7.57;5.72;;;2.40;57.20;;;-3.06;84.54;95717.16;4929666;29;20474;-51
2023/02/28 00:51:20;;;;;;;9.73;5.57;;;2.40;57.20;;;-3.01;85.20;95722.63;4932701;29;20089;-51
2023/02/28 00:53:48;;;;;;;9.57;5.45;;;2.40;57.30;;;-3.03;85.05;95722.81;4946571;28;20050;-53
2023/02/28 00:56:20;;;;;;;9.18;5.85;;;2.30;57.30;;;-3.06;84.40;95722.38;4920212;29;20035;-52
2023/02/28 00:58:46;;;;;;;8.43;5.22;;;2.40;57.30;;;-3.03;84.89;95724.63;4931436;29;20830;-51
2023/02/28 01:01:17;;;;;;;9.52;6.05;;;2.30;57.30;;;-3.04;84.87;95718.59;4926177;28;20035;-46
2023/02/28 01:03:43;;;;;;;9.23;5.78;;;2.30;57.30;;;-3.02;84.91;95719.22;4943105;28;20550;-49
2023/02/28 01:06:09;;;;;;;9.35;6.50;;;2.40;57.40;;;-3.02;84.43;95728.84;4946589;28;20119;-48
2023/02/28 01:08:35;;;;;;;8.30;5.50;;;2.40;57.40;;;-3.06;84.47;95728.38;4932090;29;20478;-48
2023/02/28 01:11:10;;;;;;;10.90;5.97;;;2.40;57.40;;;-3.02;84.78;95726.25;4929858;29;20034;-51
2023/02/28 01:13:37;;;;;;;9.40;6.18;;;2.40;57.40;;;-2.95;84.74;95724.53;4917127;29;20038;-48
2023/02/28 01:16:03;;;;;;;10.95;6.25;;;2.40;57.40;;;-2.98;84.95;95727.50;4917993;29;20506;-47
2023/02/28 01:18:32;;;;;;;8.55;5.65;;;2.40;57.40;;;-2.95;84.47;95726.34;4928053;29;20031;-51
2023/02/28 01:21:15;;;;;;;9.55;5.55;;;2.40;57.40;;;-2.97;84.48;95726.53;4946203;28;20575;-47
2023/02/28 01:23:43;;;;;;;8.95;6.20;;;2.40;57.40;;;-2.93;84.86;95729.59;4904789;29;20015;-48
2023/02/28 01:26:25;;;;;;;8.75;5.65;;;2.40;57.40;;;-3.00;84.56;95729.50;4926302;29;20101;-50
2023/02/28 01:28:53;;;;;;;12.43;6.88;;;2.40;57.40;;;-2.99;85.60;95727.69;4927855;29;20027;-48
2023/02/28 01:31:21;;;;;;;10.00;6.30;;;2.40;57.40;;;-3.04;84.74;95728.19;4931677;29;20067;-48
2023/02/28 01:33:47;;;;;;;9.38;6.35;;;2.40;57.40;;;-2.93;84.92;95729.59;4912002;29;20023;-48
2023/02/28 01:36:25;;;;;;;10.10;5.72;;;2.30;57.30;;;-2.95;84.62;95729.75;4943037;29;20027;-50
2023/02/28 01:38:51;;;;;;;7.63;5.70;;;2.40;57.60;;;-3.02;84.81;95727.03;4930776;29;20019;-50
2023/02/28 01:41:30;;;;;;;9.80;6.20;;;2.40;57.40;;;-2.98;85.20;95724.88;4945915;29;20121;-48
2023/02/28 01:44:27;;;;;;;9.75;5.90;;;2.40;57.40;;;-2.94;84.91;95726.19;4928254;29;20502;-47
2023/02/28 01:46:53;;;;;;;9.32;6.03;;;2.40;57.40;;;-2.95;84.75;95718.53;4928929;29;20038;-49
2023/02/28 01:49:19;;;;;;;12.20;6.32;;;2.40;57.40;;;-2.97;85.05;95726.53;4927877;29;20024;-51
2023/02/28 01:51:56;;;;;;;10.35;6.32;;;2.40;57.40;;;-2.99;84.84;95720.66;4922507;29;20094;-49
2023/02/28 01:54:40;;;;;;;9.45;6.60;;;2.40;57.40;;;-2.99;85.10;95725.88;4913569;29;20045;-46
2023/02/28 01:57:23;;;;;;;9.60;6.15;;;2.40;57.40;;;-2.94;85.25;95725.38;4928450;29;20034;-47
2023/02/28 02:00:07;;;;;;;9.48;6.05;;;2.40;57.40;;;-2.96;84.68;95722.94;4921988;29;20445;-47
2023/02/28 02:02:34;;;;;;;11.70;6.25;;;2.40;57.50;;;-2.94;84.97;95727.97;4946607;29;20114;-46
2023/02/28 02:05:14;;;;;;;8.57;6.05;;;2.40;57.40;;;-2.97;84.82;95720.50;4935472;29;20035;-46
2023/02/28 02:07:46;;;;;;;12.00;6.30;;;2.40;57.50;;;-3.04;85.24;95718.59;4920518;29;20042;-46
2023/02/28 02:10:29;;;;;;;8.38;6.35;;;2.40;57.40;;;-2.96;84.92;95719.50;4930658;29;20035;-48
2023/02/28 02:13:44;;;;;;;9.95;5.80;;;2.40;57.50;;;-2.96;84.64;95711.69;4945680;29;20039;-48
2023/02/28 02:16:34;;;;;;;8.82;6.28;;;2.40;57.50;;;-2.94;84.95;95707.13;4931608;29;20050;-51
2023/02/28 02:20:02;;;;;;;9.52;5.95;;;2.40;57.50;;;-2.95;85.17;95702.88;4941162;28;20442;-50
2023/02/28 02:23:20;;;;;;;8.63;6.13;;;2.40;57.50;;;-2.95;84.80;95703.69;4883331;29;20044;-49
2023/02/28 02:26:33;;;;;;;7.22;5.72;;;2.40;57.50;;;-3.03;84.35;95694.16;4918113;29;20031;-53
2023/02/28 02:29:40;;;;;;;12.05;6.90;;;2.30;57.60;;;-3.00;85.40;95692.19;4918090;29;20023;-47
2023/02/28 02:32:49;;;;;;;9.85;6.22;;;2.30;57.50;;;-2.94;85.87;95694.91;4894567;29;20042;-48
2023/02/28 02:36:07;;;;;;;9.38;5.85;;;2.30;57.60;;;-2.94;85.46;95688.88;4930349;29;20106;-51
2023/02/28 02:39:20;;;;;;;8.88;6.30;;;2.30;57.70;;;-3.02;85.68;95687.13;4935251;29;20394;-47
2023/02/28 02:41:54;;;;;;;9.15;6.15;;;2.30;57.60;;;-3.07;85.25;95689.47;4926517;29;20055;-46
2023/02/28 02:44:35;;;;;;;10.90;5.93;;;2.30;57.60;;;-3.03;84.97;95690.75;4933956;29;20031;-46
2023/02/28 02:47:20;;;;;;;8.02;5.90;;;2.30;57.60;;;-3.11;84.31;95689.00;4932449;29;20054;-50
2023/02/28 02:49:55;;;;;;;8.27;5.68;;;2.30;57.60;;;-3.06;85.20;95691.09;4930469;29;20375;-48
2023/02/28 02:52:39;;;;;;;10.48;6.10;;;2.30;57.60;;;-3.04;85.04;95692.53;4917907;29;20023;-51
2023/02/28 02:55:11;;;;;;;9.52;6.43;;;2.30;57.60;;;-3.08;85.17;95682.63;4921970;29;20382;-46
2023/02/28 02:58:02;;;;;;;9.75;5.70;;;2.30;57.60;;;-3.12;84.63;95686.59;4922080;29;20023;-47
2023/02/28 03:00:42;;;;;;;10.05;6.03;;;2.30;57.60;;;-3.09;84.85;95687.03;4933711;29;20093;-46
2023/02/28 03:03:12;;;;;;;10.05;6.60;;;2.30;57.60;;;-3.12;85.12;95683.97;4921211;29;20023;-46
2023/02/28 03:05:51;;;;;;;10.85;6.05;;;2.30;57.60;;;-3.04;84.97;95689.09;4914526;29;20486;-53
2023/02/28 03:08:17;;;;;;;8.98;6.50;;;2.30;57.60;;;-3.07;84.93;95686.84;4933620;29;20450;-51
2023/02/28 03:11:04;;;;;;;9.55;6.15;;;2.30;57.60;;;-3.12;85.08;95686.59;4931955;29;20039;-46
2023/02/28 03:14:29;;;;;;;10.63;6.45;;;2.30;57.60;;;-3.00;85.39;95681.75;4926225;29;20557;-47
2023/02/28 03:17:13;;;;;;;9.88;6.35;;;2.30;57.60;;;-3.15;84.85;95679.13;4933391;28;20035;-48
2023/02/28 03:20:17;;;;;;;8.38;5.70;;;2.30;57.70;;;-3.08;85.07;95678.22;4956730;23;20058;-48
2023/02/28 03:23:38;;;;;;;8.20;5.85;;;2.30;57.60;;;-3.09;84.58;95676.63;4959666;28;20046;-47
2023/02/28 03:26:22;;;;;;;9.02;5.30;;;2.30;57.60;;;-3.05;84.65;95683.09;4954308;28;20030;-43
2023/02/28 03:29:32;;;;;;;12.98;5.95;;;2.20;57.60;;;-3.05;84.61;95680.47;4968067;28;20070;-46
2023/02/28 03:32:23;;;;;;;9.73;6.53;;;2.30;57.70;;;-3.08;85.00;95678.22;4952852;28;20066;-48
2023/02/28 03:35:21;;;;;;;10.25;6.28;;;2.30;57.60;;;-3.04;84.84;95686.50;4957556;28;20482;-51
2023/02/28 03:37:58;;;;;;;9.93;6.50;;;2.30;57.60;;;-3.05;85.12;95684.88;4948828;28;20026;-44
2023/02/28 03:40:32;;;;;;;10.57;6.35;;;2.30;57.60;;;-3.06;85.15;95688.50;4981663;28;20114;-43
2023/02/28 03:43:19;;;;;;;9.90;6.03;;;2.20;57.60;;;-3.15;84.92;95692.97;4964607;28;20031;-49
2023/02/28 03:45:54;;;;;;;9.32;6.55;;;2.30;57.60;;;-3.03;85.49;95698.56;4948723;28;20031;-50
2023/02/28 03:48:56;;;;;;;8.93;6.03;;;2.30;57.60;;;-3.01;85.03;95696.56;4932015;28;20037;-48
2023/02/28 03:51:29;;;;;;;9.90;5.95;;;2.30;57.60;;;-3.02;85.06;95703.59;4955484;28;20120;-43
2023/02/28 03:54:10;;;;;;;11.68;6.00;;;2.30;57.60;;;-3.01;84.77;95699.19;4951286;28;20130;-47
2023/02/28 03:57:03;;;;;;;9.60;6.20;;;2.30;57.60;;;-3.00;85.25;95700.81;4975831;28;20392;-44
2023/02/28 03:59:59;;;;;;;9.38;6.25;;;2.30;57.60;;;-2.97;84.83;95691.84;4937831;28;20117;-46
2023/02/28 04:02:25;;;;;;;9.35;6.32;;;2.30;57.60;;;-3.01;85.00;95691.34;4944156;28;20469;-45
2023/02/28 04:05:00;;;;;;;9.68;5.95;;;2.30;57.60;;;-2.94;84.63;95697.50;4933035;28;20057;-46
2023/02/28 04:07:33;;;;;;;9.23;5.65;;;2.30;57.60;;;-2.96;84.63;95690.84;4949981;28;20050;-48
2023/02/28 04:10:04;;;;;;;8.00;5.75;;;2.30;57.60;;;-2.95;84.89;95693.25;4934853;28;20042;-47
2023/02/28 04:12:30;;;;;;;9.25;5.70;;;2.30;57.60;;;-3.05;84.57;95701.34;4946582;28;20042;-53
2023/02/28 04:14:59;;;;;;;10.02;5.97;;;2.40;57.60;;;-2.99;85.02;95701.63;4943739;28;20030;-45
2023/02/28 04:17:27;;;;;;;7.32;5.65;;;2.40;57.60;;;-3.00;85.01;95703.41;4943407;28;20182;-45
2023/02/28 04:19:56;;;;;;;9.75;5.70;;;2.40;57.60;;;-3.06;83.55;95710.16;4951960;28;20043;-43
2023/02/28 04:22:24;;;;;;;8.65;5.95;;;2.40;57.50;;;-3.11;83.93;95707.25;4945090;28;20042;-48
2023/02/28 04:24:53;;;;;;;7.63;5.70;;;2.40;57.50;;;-3.11;84.30;95709.84;4965151;28;20031;-48
2023/02/28 04:27:19;;;;;;;9.43;6.07;;;2.40;57.50;;;-3.15;85.03;95715.59;4966901;28;20037;-48
2023/02/28 04:29:48;;;;;;;9.07;5.78;;;2.30;57.50;;;-3.11;84.87;95722.88;4949406;28;20362;-45
2023/02/28 04:32:14;;;;;;;8.23;6.35;;;2.30;57.50;;;-3.09;84.50;95722.72;4945262;28;20121;-45
2023/02/28 04:34:40;;;;;;;10.32;5.80;;;2.30;57.50;;;-3.09;85.09;95714.91;4943858;28;20105;-51
2023/02/28 04:37:06;;;;;;;8.75;6.07;;;2.30;57.50;;;-3.16;84.28;95717.41;4947221;28;20145;-44
2023/02/28 04:39:37;;;;;;;7.18;5.15;;;2.30;57.50;;;-3.15;84.07;95720.81;4964206;28;20031;-45
2023/02/28 04:42:13;;;;;;;9.15;6.03;;;2.30;58.10;;;-3.19;84.52;95716.94;4918159;28;20033;-46
2023/02/28 04:44:47;;;;;;;8.90;5.85;;;2.30;58.10;;;-3.22;84.26;95712.09;4943642;28;20033;-45
2023/02/28 04:47:16;;;;;;;8.50;5.50;;;2.30;57.50;;;-3.21;84.46;95721.53;4965415;28;20041;-43
2023/02/28 04:49:42;;;;;;;8.48;5.72;;;2.30;57.50;;;-3.19;84.80;95725.56;4939716;28;20033;-46
2023/02/28 04:52:14;;;;;;;7.05;5.20;;;2.30;57.50;;;-3.09;84.49;95714.91;4936222;28;20126;-44
2023/02/28 04:54:52;;;;;;;7.83;6.20;;;2.30;57.60;;;-3.19;84.29;95724.78;4942494;28;20069;-46
2023/02/28 04:57:17;;;;;;;7.20;5.30;;;2.20;57.50;;;-3.15;84.74;95710.41;4941004;28;20109;-47
2023/02/28 04:59:49;;;;;;;7.75;6.00;;;2.30;57.60;;;-3.13;84.41;95727.47;4942485;28;20114;-43
2023/02/28 05:02:15;;;;;;;9.52;5.30;;;2.20;57.50;;;-3.09;84.73;95727.94;4950099;28;20041;-47
2023/02/28 05:04:41;;;;;;;8.07;5.78;;;2.30;57.60;;;-3.11;84.83;95728.09;4947425;28;20023;-45
2023/02/28 05:07:10;;;;;;;7.28;5.70;;;2.30;57.60;;;-3.10;84.48;95734.94;4936106;28;20485;-46
2023/02/28 05:09:35;;;;;;;8.43;5.90;;;2.20;57.50;;;-3.12;84.49;95726.47;4950760;28;20030;-44
2023/02/28 05:12:01;;;;;;;7.18;5.50;;;2.30;57.60;;;-3.16;84.55;95724.41;4957399;28;20031;-49
2023/02/28 05:14:27;;;;;;;8.70;5.47;;;2.30;57.60;;;-3.10;84.49;95734.16;4941039;28;20033;-43
2023/02/28 05:16:56;;;;;;;8.95;5.65;;;2.30;57.60;;;-3.18;84.30;95731.59;4946175;28;20022;-45
2023/02/28 05:19:25;;;;;;;7.32;5.38;;;2.30;57.50;;;-3.10;84.30;95729.75;4947051;28;20051;-49
2023/02/28 05:21:55;;;;;;;8.10;5.30;;;2.30;57.60;;;-3.14;84.36;95740.66;4937453;28;20030;-49
2023/02/28 05:24:24;;;;;;;7.10;5.05;;;2.20;57.50;;;-3.04;84.57;95738.63;4939587;28;20433;-44
2023/02/28 05:26:57;;;;;;;8.45;5.57;;;2.30;57.60;;;-3.05;84.09;95747.44;4960375;28;20054;-48
2023/02/28 05:29:23;;;;;;;8.55;5.30;;;2.30;57.60;;;-3.09;84.17;95744.38;4938406;28;20058;-45
2023/02/28 05:31:52;;;;;;;12.85;6.13;;;2.30;57.60;;;-3.02;83.98;95747.09;4949006;28;20120;-44
2023/02/28 05:34:21;;;;;;;8.13;5.45;;;2.30;57.60;;;-3.09;84.52;95746.97;4965447;28;20027;-44
2023/02/28 05:36:47;;;;;;;7.45;5.13;;;2.30;57.60;;;-3.10;84.48;95742.78;4943253;29;20174;-50
2023/02/28 05:39:12;;;;;;;10.13;5.60;;;2.30;57.60;;;-3.13;84.26;95739.72;4932828;29;20047;-44
2023/02/28 05:41:43;;;;;;;7.82;5.55;;;2.30;57.50;;;-3.20;84.31;95736.16;4945796;29;20043;-50
2023/02/28 05:44:12;;;;;;;8.10;5.35;;;2.30;57.50;;;-3.10;84.17;95740.16;4956252;28;20023;-48
2023/02/28 05:46:38;;;;;;;7.32;5.30;;;2.30;57.50;;;-3.18;84.50;95745.44;4961899;28;20077;-46
2023/02/28 05:49:04;;;;;;;7.50;5.65;;;2.30;57.50;;;-3.20;84.43;95739.56;4949661;29;20064;-44
2023/02/28 05:51:34;;;;;;;7.97;5.70;;;2.30;57.50;;;-3.05;84.33;95752.66;4962218;28;20039;-44
2023/02/28 05:54:04;;;;;;;7.40;5.20;;;2.30;57.50;;;-3.05;84.50;95750.84;4939715;28;20510;-49
2023/02/28 05:56:34;;;;;;;8.20;5.65;;;2.30;57.50;;;-3.13;84.48;95750.94;4933043;29;20041;-45
2023/02/28 05:59:10;;;;;;;9.65;5.43;;;2.30;57.60;;;-3.15;84.13;95749.47;4962865;28;20035;-44
2023/02/28 06:01:51;;;;;;;8.13;5.65;;;2.30;57.50;;;-3.13;84.21;95756.16;4948332;29;20057;-44
2023/02/28 06:04:20;;;;;;;7.75;5.57;;;2.30;57.50;;;-3.02;84.57;95760.94;4943188;29;20053;-44
2023/02/28 06:06:50;;;;;;;8.13;5.93;;;2.30;57.50;;;-3.01;83.77;95759.13;4940985;29;20033;-48
2023/02/28 06:09:18;;;;;;;8.90;6.10;;;2.30;57.60;;;-3.16;84.07;95759.09;4940601;28;20102;-46
2023/02/28 06:11:47;;;;;;;7.82;4.95;;;2.30;57.50;;;-3.06;83.90;95756.25;4944986;28;20061;-44
2023/02/28 06:14:20;;;;;;;12.25;5.90;;;2.30;57.50;;;-3.11;83.70;95745.53;4927046;28;20105;-45
2023/02/28 06:16:47;;;;;;;10.50;6.00;;;2.30;57.50;;;-3.08;84.33;95758.22;4946281;28;20526;-44
2023/02/28 06:19:16;;;;;;;8.23;5.65;;;2.30;57.50;;;-3.09;83.47;95754.00;4936023;28;20523;-43
2023/02/28 06:21:43;;;;;;;10.35;5.95;;;2.30;57.50;;;-3.15;83.91;95755.50;4945172;28;20057;-47
2023/02/28 06:24:15;;;;;;;9.38;5.75;;;2.30;57.50;;;-3.14;84.10;95762.31;4953816;28;20041;-44
2023/02/28 06:26:41;;;;;;;9.50;5.90;;;2.30;57.50;;;-3.15;83.89;95770.34;4928128;28;25710;-44
2023/02/28 06:29:07;;;;;;;10.75;6.47;;;2.30;57.40;;;-3.17;83.02;95764.47;4950445;28;20060;-51
2023/02/28 06:31:33;;;;;;;9.35;5.88;;;2.30;57.40;;;-3.10;83.93;95770.63;4941336;28;20042;-45
2023/02/28 06:33:58;;;;;;;10.20;6.20;;;2.30;57.40;;;-3.18;83.12;95771.50;4944132;28;20031;-43
2023/02/28 06:36:24;;;;;;;7.72;5.55;;;2.30;57.40;;;-3.15;83.01;95776.34;4967790;28;20401;-46
2023/02/28 06:38:54;;;;;;;7.38;5.72;;;2.30;57.40;;;-3.06;83.07;95782.31;4967440;28;20030;-54
2023/02/28 06:41:26;;;;;;;9.23;5.72;;;2.30;57.40;;;-3.06;83.79;95790.94;4944065;28;20035;-45
2023/02/28 06:43:53;;;;;;;11.48;6.43;;;2.40;57.40;;;-3.07;83.57;95794.53;4945918;28;20478;-45
2023/02/28 06:46:19;;;;;;;8.63;5.90;;;2.40;57.40;;;-3.16;83.63;95781.75;4929963;28;20035;-45
2023/02/28 06:48:48;;;;;;;7.40;5.78;;;2.40;57.40;;;-3.16;82.62;95785.16;4945286;28;20378;-49
2023/02/28 06:51:22;;;;;;;9.65;6.13;;;2.40;57.30;;;-3.08;83.16;95782.47;4950859;28;20042;-44
2023/02/28 06:53:48;;;;;;;10.25;5.85;;;2.40;57.30;;;-3.07;83.44;95791.94;4942126;28;20133;-45
2023/02/28 06:56:17;;;;;;;8.73;6.30;;;2.50;57.30;;;-3.11;82.15;95798.47;4936834;28;20493;-45
2023/02/28 06:58:49;;;;;;;7.43;5.72;;;2.50;57.30;;;-3.02;83.17;95794.81;4962525;28;20061;-44
2023/02/28 07:01:15;;;;;;;11.00;6.57;;;2.50;57.20;;;-2.96;83.00;95795.91;4974002;28;20027;-48
2023/02/28 07:03:42;;;;;;;9.32;6.25;;;2.60;57.20;;;-2.98;83.29;95795.28;4964554;28;20409;-45
2023/02/28 07:06:08;;;;;;;9.10;6.20;;;2.60;57.20;;;-3.07;82.86;95799.75;4947510;28;20077;-45
2023/02/28 07:08:35;;;;;;;7.10;5.47;;;2.60;57.10;;;-3.05;83.26;95800.38;4957982;28;20023;-49
2023/02/28 07:11:03;;;;;;;9.60;6.25;;;2.70;57.00;;;-3.00;83.41;95805.06;4948028;28;20027;-50
2023/02/28 07:13:29;;;;;;;8.70;6.18;;;2.70;57.00;;;-3.00;83.14;95807.69;4961580;28;20030;-47
2023/02/28 07:16:10;;;;;;;8.82;6.50;;;2.70;57.00;;;-3.03;83.24;95805.44;4959592;28;20046;-44
2023/02/28 07:18:37;;;;;;;10.15;6.30;;;2.70;57.00;;;-3.03;82.49;95808.03;4966777;28;20023;-48
2023/02/28 07:21:08;;;;;;;9.68;6.53;;;2.70;57.00;;;-3.04;82.65;95812.44;4940465;28;20561;-46
2023/02/28 07:23:37;;;;;;;7.78;5.47;;;2.80;57.00;;;-3.04;82.23;95812.44;4965976;28;20034;-45
2023/02/28 07:26:05;;;;;;;9.35;6.18;;;2.80;56.90;;;-3.07;82.95;95809.34;4928957;28;20027;-44
2023/02/28 07:28:31;;;;;;;7.97;6.20;;;2.80;56.80;;;-2.99;83.04;95808.50;4938530;28;20082;-49
2023/02/28 07:31:09;;;;;;;10.05;6.55;;;2.90;56.80;;;-2.96;83.25;95815.97;4970332;28;20117;-48
2023/02/28 07:33:36;;;;;;;7.20;5.85;;;2.90;56.70;;;-2.92;83.02;95817.22;4939277;28;20027;-44
2023/02/28 07:36:20;;;;;;;10.95;6.55;;;2.90;56.70;;;-2.88;82.89;95813.31;4945890;28;20137;-45
2023/02/28 07:38:49;;;;;;;8.80;6.28;;;3.00;56.70;;;-2.90;83.05;95815.25;4963998;28;20111;-48
2023/02/28 07:41:21;;;;;;;9.10;6.18;;;3.00;56.60;;;-2.74;82.44;95816.94;4938552;28;20563;-44
2023/02/28 07:43:52;;;;;;;10.15;6.90;;;3.10;56.60;;;-2.80;82.32;95815.84;4945256;28;20026;-45
2023/02/28 07:46:20;;;;;;;8.80;6.38;;;3.10;56.50;;;-2.83;82.59;95821.41;4950174;28;20452;-44
2023/02/28 07:48:54;;;;;;;8.80;6.18;;;3.10;56.50;;;-2.94;82.41;95814.00;4951388;28;20033;-47
2023/02/28 07:51:20;;;;;;;9.00;6.15;;;3.10;56.40;;;-2.92;81.82;95823.25;4947873;28;20034;-51
2023/02/28 07:53:46;;;;;;;11.02;6.57;;;3.20;56.30;;;-2.81;83.18;95824.66;4950104;28;20109;-45
2023/02/28 07:56:12;;;;;;;9.32;6.32;;;3.20;56.20;;;-2.85;82.22;95824.19;4949194;28;20125;-45
2023/02/28 07:58:38;;;;;;;9.77;6.45;;;3.30;56.20;;;-2.87;82.21;95823.53;4947317;28;20029;-53
2023/02/28 08:01:11;;;;;;;9.27;6.57;;;3.40;56.20;;;-2.79;81.71;95830.47;4942218;28;20038;-47
2023/02/28 08:03:41;;;;;;;10.50;6.93;;;3.40;56.10;;;-2.75;81.52;95837.00;4966241;28;20029;-45
2023/02/28 08:06:24;;;;;;;10.48;6.80;;;3.40;56.00;;;-2.63;82.46;95838.19;4965521;28;20034;-46
2023/02/28 08:08:52;;;;;;;10.77;7.00;;;3.50;56.00;;;-2.56;82.07;95836.50;4965660;28;20026;-44
2023/02/28 08:11:18;;;;;;;10.45;6.80;;;3.50;55.90;;;-2.55;82.11;95839.91;4945452;28;20039;-45
2023/02/28 08:13:46;;;;;;;11.18;7.30;;;3.60;56.00;;;-2.73;81.63;95839.41;4942932;28;20077;-45
2023/02/28 08:16:17;;;;;;;9.15;7.10;;;3.70;55.80;;;-2.62;81.81;95837.19;4961673;28;20035;-47
2023/02/28 08:18:43;;;;;;;10.07;6.53;;;3.70;55.70;;;-2.44;82.01;95839.50;4935105;28;20106;-47
2023/02/28 08:21:11;;;;;;;9.02;6.80;;;3.80;55.70;;;-2.50;80.38;95844.63;4932430;29;20067;-51
2023/02/28 08:23:38;;;;;;;9.07;6.65;;;3.90;55.70;;;-2.57;80.30;95852.31;4935357;28;20110;-50
2023/02/28 08:26:05;;;;;;;9.80;6.90;;;3.90;55.50;;;-2.49;81.80;95839.22;4940715;28;20089;-47
2023/02/28 08:28:32;;;;;;;10.93;6.82;;;4.00;55.50;;;-2.36;81.03;95846.41;4980236;28;20027;-51
2023/02/28 08:30:58;;;;;;;8.77;6.65;;;4.00;55.40;;;-2.30;80.51;95843.09;4965695;28;20402;-50
2023/02/28 08:33:28;;;;;;;9.15;6.57;;;4.10;55.30;;;-2.32;80.13;95845.06;4951551;28;20027;-47
2023/02/28 08:35:56;;;;;;;11.30;7.50;;;4.20;55.20;;;-2.43;80.22;95841.09;4968636;28;20391;-46
2023/02/28 08:38:24;;;;;;;11.82;6.65;;;4.20;55.10;;;-2.48;81.02;95842.63;4938020;28;20453;-52
2023/02/28 08:40:56;;;;;;;8.82;6.53;;;4.30;54.90;;;-2.22;80.71;95845.66;4932380;28;20042;-49
2023/02/28 08:43:22;;;;;;;9.77;7.22;;;4.30;54.80;;;-2.28;80.24;95833.31;4949556;28;20030;-47
2023/02/28 08:45:52;;;;;;;11.88;7.00;;;4.40;54.80;;;-2.42;80.15;95845.31;4937999;28;20029;-47
2023/02/28 08:48:19;;;;;;;8.02;6.60;;;4.50;54.70;;;-2.26;79.88;95841.75;4965082;28;20432;-47
2023/02/28 08:50:54;;;;;;;10.07;6.95;;;4.50;54.60;;;-2.29;80.07;95836.88;4936382;28;20031;-50
2023/02/28 08:53:20;;;;;;;10.98;6.93;;;4.50;54.40;;;-2.27;80.35;95841.94;4953856;28;20073;-46
2023/02/28 08:56:00;;;;;;;11.10;6.95;;;4.60;54.30;;;-2.28;80.36;95841.13;4947445;28;20027;-46
2023/02/28 08:58:27;;;;;;;10.77;6.63;;;4.70;54.40;;;-2.12;79.34;95843.59;4942638;28;20026;-48
2023/02/28 09:00:59;;;;;;;10.05;7.28;;;4.70;54.20;;;-1.98;78.77;95841.97;4944492;28;20081;-47
2023/02/28 09:03:25;;;;;;;8.70;6.70;;;4.80;54.10;;;-2.03;78.61;95851.34;4938470;28;20038;-50
2023/02/28 09:06:00;;;;;;;8.77;6.72;;;4.90;54.70;;;-2.04;78.55;95854.91;4948876;28;20030;-50
2023/02/28 09:08:30;;;;;;;10.25;6.78;;;5.00;53.90;;;-2.01;78.95;95854.56;4954783;28;20030;-47
2023/02/28 09:10:57;;;;;;;10.77;6.95;;;5.00;53.80;;;-2.10;77.86;95867.72;4943712;28;20554;-48
2023/02/28 09:13:26;;;;;;;9.30;7.18;;;5.00;53.70;;;-2.19;79.25;95868.78;4943015;28;20034;-46
2023/02/28 09:15:53;;;;;;;9.73;6.97;;;5.00;53.50;;;-2.27;79.38;95875.88;4958399;28;20038;-50
2023/02/28 09:18:20;;;;;;;9.95;6.47;;;5.00;53.50;;;-2.06;78.21;95875.19;4943782;28;20027;-51
2023/02/28 09:20:46;;;;;;;11.93;7.22;;;5.00;53.50;;;-2.14;78.46;95887.31;4960075;28;20054;-47
2023/02/28 09:23:13;;;;;;;10.43;7.13;;;5.00;53.50;;;-2.16;77.44;95881.47;4942779;28;20015;-48
2023/02/28 09:25:52;;;;;;;9.35;6.90;;;4.90;53.40;;;-2.11;78.02;95879.13;4946974;28;20176;-47
2023/02/28 09:28:20;;;;;;;11.40;6.93;;;4.90;53.40;;;-2.16;77.47;95888.50;4950090;29;20125;-47
2023/02/28 09:30:54;;;;;;;9.48;6.97;;;4.90;53.40;;;-2.15;76.46;95883.09;4948625;28;20096;-47
2023/02/28 09:33:23;;;;;;;10.55;7.00;;;4.90;53.30;;;-2.30;77.41;95871.81;4961157;28;20390;-47
2023/02/28 09:36:01;;;;;;;11.50;7.30;;;4.90;53.20;;;-1.97;77.57;95874.94;4946184;29;20034;-49
2023/02/28 09:38:27;;;;;;;8.75;6.85;;;5.00;53.20;;;-1.91;77.91;95868.19;4946655;28;20030;-52
2023/02/28 09:41:09;;;;;;;11.55;7.45;;;5.10;53.30;;;-1.76;76.83;95873.38;4952386;28;20030;-47
2023/02/28 09:43:47;;;;;;;10.20;6.80;;;5.20;53.20;;;-1.83;77.48;95878.53;4938657;29;20023;-47
2023/02/28 09:46:42;;;;;;;11.77;6.93;;;5.20;53.10;;;-1.95;75.90;95883.38;4973782;28;20490;-48
2023/02/28 09:49:22;;;;;;;9.60;6.75;;;5.30;53.00;;;-1.96;77.27;95889.59;4983581;28;20033;-48
2023/02/28 09:52:14;;;;;;;9.80;6.60;;;5.30;52.80;;;-1.79;77.38;95898.06;4948533;28;20110;-51
2023/02/28 09:54:49;;;;;;;9.85;6.85;;;5.30;52.70;;;-1.87;76.86;95898.16;4935342;28;20436;-51
2023/02/28 09:57:41;;;;;;;10.25;7.28;;;5.30;52.70;;;-1.89;77.49;95905.34;4953512;28;20030;-47
2023/02/28 10:00:38;;;;;;;10.20;7.00;;;5.30;52.60;;;-2.06;77.28;95902.09;4961302;28;20030;-47
2023/02/28 10:03:38;;;;;;;9.82;6.85;;;5.30;52.60;;;-1.99;77.36;95905.63;4947164;28;20030;-47
2023/02/28 10:06:20;;;;;;;9.20;6.40;;;5.20;52.60;;;-1.77;78.28;95897.91;4951344;28;20489;-47
2023/02/28 10:09:24;;;;;;;10.05;7.00;;;5.20;52.70;;;-1.88;76.92;95899.13;4966345;28;20034;-50
2023/02/28 10:12:04;;;;;;;10.85;7.50;;;5.20;52.70;;;-1.87;77.05;95890.31;4970863;28;20042;-49
2023/02/28 10:14:38;;;;;;;10.48;7.47;;;5.20;52.70;;;-1.59;75.82;95903.56;4952877;28;20050;-54
2023/02/28 10:17:17;;;;;;;9.65;6.68;;;5.30;52.70;;;-1.55;76.86;95904.81;4966083;28;20042;-47
2023/02/28 10:20:11;;;;;;;7.90;6.25;;;5.30;52.70;;;-1.46;74.71;95908.16;4934935;28;20397;-47
2023/02/28 10:22:58;;;;;;;9.30;6.40;;;5.40;52.70;;;-1.67;74.82;95914.09;4978703;28;20030;-47
2023/02/28 10:25:30;;;;;;;11.00;7.55;;;5.40;52.60;;;-1.72;75.81;95924.31;4922065;28;20498;-50
2023/02/28 10:28:12;;;;;;;8.70;6.72;;;5.30;52.40;;;-1.50;75.21;95933.84;4947544;28;20521;-48
2023/02/28 10:30:52;;;;;;;9.30;6.97;;;5.40;52.40;;;-1.77;75.01;95924.81;4944508;28;20123;-47
2023/02/28 10:33:51;;;;;;;9.27;6.70;;;5.30;52.40;;;-1.69;75.00;95924.75;4959896;28;20126;-47
2023/02/28 10:36:22;;;;;;;10.90;7.07;;;5.30;52.30;;;-1.57;75.33;95926.91;4920284;28;20070;-47
2023/02/28 10:38:55;;;;;;;11.20;7.47;;;5.30;52.40;;;-1.45;75.62;95928.06;4917959;28;20121;-47
2023/02/28 10:41:36;;;;;;;9.98;7.20;;;5.30;52.60;;;-1.36;74.12;95934.81;4949137;28;20038;-49
2023/02/28 10:44:36;;;;;;;11.52;7.13;;;5.40;52.30;;;-1.44;74.13;95924.47;4960310;28;20128;-49
2023/02/28 10:47:19;;;;;;;11.27;7.28;;;5.40;52.30;;;-1.53;75.27;95920.34;4928059;28;20054;-50
2023/02/28 10:49:52;;;;;;;13.20;8.13;;;5.40;52.30;;;-1.48;75.70;95921.41;4945531;28;20031;-48
2023/02/28 10:52:39;;;;;;;11.00;7.50;;;5.40;52.20;;;-1.38;75.24;95928.97;4965071;28;20035;-52
2023/02/28 10:55:26;;;;;;;10.38;7.47;;;5.50;52.20;;;-1.36;74.33;95924.38;4963848;28;20054;-48